createdAt,value
2022-10-13T00:01:09.237Z,101669.03
2022-10-13T00:03:37.020Z,101702.16
2022-10-13T00:06:10.100Z,101667.13
2022-10-13T00:08:37.244Z,101681.88
2022-10-13T00:11:14.020Z,101674.78
2022-10-13T00:13:41.013Z,101679.50
2022-10-13T00:16:08.068Z,101680.13
2022-10-13T00:18:34.543Z,101667.44
2022-10-13T00:21:01.263Z,101665.25
2022-10-13T00:23:27.614Z,101685.53
2022-10-13T00:25:54.007Z,101656.22
2022-10-13T00:28:20.618Z,101652.03
2022-10-13T00:30:47.373Z,101669.13
2022-10-13T00:33:14.458Z,101686.75
2022-10-13T00:35:47.991Z,101651.88
2022-10-13T00:38:15.899Z,101658.88
2022-10-13T00:40:46.582Z,101683.72
2022-10-13T00:43:24.635Z,101659.19
2022-10-13T00:45:51.877Z,101644.25
2022-10-13T00:48:23.865Z,101673.47
2022-10-13T00:50:51.423Z,101685.97
2022-10-13T00:53:21.649Z,101643.59
2022-10-13T00:55:49.687Z,101660.41
2022-10-13T00:58:19.539Z,101673.22
2022-10-13T01:00:49.104Z,101651.72
2022-10-13T01:03:15.910Z,101659.94
2022-10-13T01:05:42.919Z,101680.28
2022-10-13T01:08:10.979Z,101664.28
2022-10-13T01:10:55.313Z,101653.75
2022-10-13T01:13:38.946Z,101657.22
2022-10-13T01:16:24.210Z,101666.44
2022-10-13T01:19:27.421Z,101675.25
2022-10-13T01:22:31.509Z,101669.31
2022-10-13T01:25:06.951Z,101663.97
2022-10-13T01:27:57.745Z,101662.16
2022-10-13T01:30:24.189Z,101650.91
2022-10-13T01:33:18.076Z,101646.50
2022-10-13T01:35:56.887Z,101641.22
2022-10-13T01:38:42.415Z,101656.56
2022-10-13T01:41:19.399Z,101617.94
2022-10-13T01:43:55.827Z,101638.53
2022-10-13T01:46:26.726Z,101639.38
2022-10-13T01:48:56.473Z,101607.59
2022-10-13T01:51:25.485Z,101617.94
2022-10-13T01:53:52.108Z,101591.59
2022-10-13T01:56:18.651Z,101634.38
2022-10-13T01:58:46.728Z,101618.66
2022-10-13T02:01:36.804Z,101611.50
2022-10-13T02:04:17.934Z,101612.84
2022-10-13T02:07:06.453Z,101617.91
2022-10-13T02:09:48.529Z,101605.06
2022-10-13T02:12:30.240Z,101611.09
2022-10-13T02:14:58.817Z,101594.88
2022-10-13T02:17:27.323Z,101594.13
2022-10-13T02:19:55.203Z,101614.06
2022-10-13T02:22:26.335Z,101589.88
2022-10-13T02:24:53.210Z,101612.69
2022-10-13T02:27:20.010Z,101605.66
2022-10-13T02:29:55.321Z,101594.00
2022-10-13T02:32:22.898Z,101609.69
2022-10-13T02:34:49.842Z,101578.63
2022-10-13T02:37:16.552Z,101581.25
2022-10-13T02:39:43.032Z,101593.66
2022-10-13T02:42:09.778Z,101565.78
2022-10-13T02:44:36.333Z,101599.03
2022-10-13T02:47:03.166Z,101580.84
2022-10-13T02:49:29.632Z,101566.91
2022-10-13T02:51:56.141Z,101552.03
2022-10-13T02:54:22.661Z,101579.97
2022-10-13T02:56:49.128Z,101562.59
2022-10-13T02:59:15.601Z,101564.78
2022-10-13T03:01:42.145Z,101545.75
2022-10-13T03:04:09.100Z,101569.84
2022-10-13T03:06:35.578Z,101565.63
2022-10-13T03:09:02.044Z,101577.47
2022-10-13T03:11:28.826Z,101540.50
2022-10-13T03:13:55.440Z,101571.97
2022-10-13T03:16:21.919Z,101541.34
2022-10-13T03:18:48.354Z,101555.75
2022-10-13T03:21:15.684Z,101545.03
2022-10-13T03:23:42.150Z,101553.72
2022-10-13T03:26:08.656Z,101543.75
2022-10-13T03:28:35.221Z,101544.84
2022-10-13T03:31:07.823Z,101570.53
2022-10-13T03:33:34.481Z,101538.28
2022-10-13T03:36:01.950Z,101568.47
2022-10-13T03:38:29.875Z,101546.41
2022-10-13T03:40:56.893Z,101549.84
2022-10-13T03:43:23.685Z,101528.16
2022-10-13T03:46:00.240Z,101555.25
2022-10-13T03:48:28.128Z,101540.91
2022-10-13T03:50:55.656Z,101540.69
2022-10-13T03:53:22.275Z,101540.25
2022-10-13T03:55:52.996Z,101508.53
2022-10-13T03:58:20.097Z,101548.16
2022-10-13T04:00:46.989Z,101523.28
2022-10-13T04:03:13.978Z,101512.16
2022-10-13T04:05:40.693Z,101526.00
2022-10-13T04:08:07.213Z,101534.59
2022-10-13T04:10:33.785Z,101544.09
2022-10-13T04:13:02.973Z,101476.03
2022-10-13T04:15:29.837Z,101522.06
2022-10-13T04:17:56.394Z,101516.06
2022-10-13T04:20:23.037Z,101531.38
2022-10-13T04:22:49.638Z,101542.34
2022-10-13T04:25:16.196Z,101520.75
2022-10-13T04:27:42.899Z,101508.31
2022-10-13T04:30:12.460Z,101536.72
2022-10-13T04:32:40.473Z,101497.34
2022-10-13T04:35:07.308Z,101506.69
2022-10-13T04:37:33.908Z,101503.53
2022-10-13T04:40:12.679Z,101504.81
2022-10-13T04:42:48.727Z,101517.38
2022-10-13T04:45:23.662Z,101457.34
2022-10-13T04:48:10.381Z,101475.94
2022-10-13T04:50:44.123Z,101478.31
2022-10-13T04:53:19.220Z,101474.28
2022-10-13T04:55:46.655Z,101486.34
2022-10-13T04:58:13.430Z,101499.06
2022-10-13T05:00:57.484Z,101505.28
2022-10-13T05:03:32.655Z,101516.69
2022-10-13T05:06:03.743Z,101506.94
2022-10-13T05:08:34.180Z,101453.25
2022-10-13T05:11:11.371Z,101513.66
2022-10-13T05:13:39.235Z,101444.41
2022-10-13T05:16:15.920Z,101492.03
2022-10-13T05:18:43.525Z,101497.69
2022-10-13T05:21:24.844Z,101507.63
2022-10-13T05:23:56.150Z,101497.78
2022-10-13T05:26:29.308Z,101505.22
2022-10-13T05:28:57.315Z,101455.25
2022-10-13T05:31:27.931Z,101458.84
2022-10-13T05:34:01.044Z,101497.56
2022-10-13T05:36:56.581Z,101431.59
2022-10-13T05:39:41.845Z,101475.94
2022-10-13T05:42:22.926Z,101445.78
2022-10-13T05:44:56.451Z,101471.41
2022-10-13T05:47:37.691Z,101478.78
2022-10-13T05:50:10.117Z,101445.84
2022-10-13T05:52:52.917Z,101433.09
2022-10-13T05:55:40.873Z,101455.41
2022-10-13T05:58:19.901Z,101494.78
2022-10-13T06:01:02.866Z,101459.44
2022-10-13T06:03:44.446Z,101431.50
2022-10-13T06:06:27.918Z,101430.44
2022-10-13T06:09:15.996Z,101474.91
2022-10-13T06:11:54.739Z,101458.22
2022-10-13T06:15:14.637Z,101472.22
2022-10-13T06:17:21.962Z,101493.84
2022-10-13T06:22:43.546Z,101498.91
2022-10-13T06:25:29.995Z,101437.09
2022-10-13T06:28:03.312Z,101466.75
2022-10-13T06:30:33.054Z,101441.75
2022-10-13T06:33:06.881Z,101461.53
2022-10-13T06:36:01.050Z,101438.69
2022-10-13T06:56:44.233Z,101491.25
2022-10-13T06:59:29.987Z,101471.63
2022-10-13T07:01:59.803Z,101415.53
2022-10-13T07:04:30.837Z,101480.06
2022-10-13T07:07:07.243Z,101459.41
2022-10-13T07:09:47.546Z,101434.81
2022-10-13T07:15:29.520Z,101467.66
2022-10-13T07:18:30.997Z,101462.13
2022-10-13T07:27:12.676Z,101425.16
2022-10-13T07:29:41.767Z,101417.16
2022-10-13T07:32:11.925Z,101408.78
2022-10-13T07:34:41.193Z,101408.97
2022-10-13T07:37:13.128Z,101467.00
2022-10-13T07:39:45.949Z,101401.81
2022-10-13T07:42:17.700Z,101401.13
2022-10-13T07:44:55.508Z,101456.13
2022-10-13T07:47:42.437Z,101407.47
2022-10-13T07:50:20.243Z,101423.25
2022-10-13T07:52:57.062Z,101454.53
2022-10-13T07:55:24.134Z,101407.41
2022-10-13T07:57:53.221Z,101449.03
2022-10-13T08:00:30.720Z,101437.47
2022-10-13T08:03:40.307Z,101417.72
2022-10-13T08:06:19.201Z,101395.91
2022-10-13T08:08:52.968Z,101406.50
2022-10-13T08:11:32.754Z,101430.91
2022-10-13T08:14:02.866Z,101387.41
2022-10-13T08:16:36.665Z,101394.13
2022-10-13T08:19:05.744Z,101429.38
2022-10-13T08:28:05.398Z,101371.28
2022-10-13T08:31:09.023Z,101389.53
2022-10-13T08:33:36.275Z,101395.47
2022-10-13T08:36:34.858Z,101385.53
2022-10-13T08:39:49.932Z,101383.00
2022-10-13T08:42:24.751Z,101368.97
2022-10-13T08:48:24.743Z,101372.28
2022-10-13T08:59:00.151Z,101401.53
2022-10-13T09:01:58.043Z,101371.47
2022-10-13T10:03:58.928Z,101359.84
2022-10-13T10:07:06.631Z,101365.50
2022-10-13T10:09:48.905Z,101406.75
2022-10-13T10:16:41.438Z,101376.13
2022-10-13T10:20:00.139Z,101380.41
2022-10-13T10:23:30.807Z,101399.88
2022-10-13T10:26:14.032Z,101391.50
2022-10-13T10:58:51.358Z,101303.56
2022-10-13T11:01:27.815Z,101321.19
2022-10-13T11:04:40.588Z,101288.63
2022-10-13T11:07:42.151Z,101348.75
2022-10-13T12:07:32.361Z,101220.22
2022-10-13T12:10:05.238Z,101258.16
2022-10-13T12:50:16.438Z,101266.06
2022-10-13T12:52:48.506Z,101240.06
2022-10-13T12:55:19.057Z,101235.78
2022-10-13T12:58:18.142Z,101251.94
2022-10-13T13:00:47.576Z,101249.38
2022-10-13T13:03:40.148Z,101243.47
2022-10-13T13:06:39.816Z,101281.00
2022-10-13T13:16:41.430Z,101282.34
2022-10-13T13:19:37.645Z,101237.38
2022-10-13T23:55:01.293Z,101068.47
